Sunday, January 20, 2019, 2:19 AM EST
Back to Local

KART, Watertown International Airport

Location: Dexter, NY, United States Lat: 43.983
Local Time: 2:19 AM EST ( 7:19 GMT) Lon: -76.033
Time Zone: US/Eastern Elev: 324 ft

Show me the last for .
Show Decoded

2019-01-20 01:56 METAR KART 200656Z AUTO 04016KT 1/4SM SN FZFG M20/M22 A2987 RMK AO2 PRESFR
                 SLP129 P0001 T12001222 $ =
2019-01-20 01:20 METAR KART 200620Z AUTO 03015KT 1/4SM SN FZFG M20/M22 A2989 RMK AO2 P0000
                 T12001222 $ =
2019-01-20 00:56 METAR KART 200556Z AUTO 04014G23KT 1/2SM SN FZFG M20/M22 A2990 RMK AO2 PK WND
                 04028/0527 SLP139 P0000 60000 T12001222 11183 21200 58037 $ =
2019-01-20 00:49 METAR KART 200549Z AUTO 04015KT 1/2SM SN FZFG M20/M22 A2990 RMK AO2 PK WND
                 04028/0527 PRESFR P0000 T12001222 $ =
2019-01-20 00:36 METAR KART 200536Z AUTO 04018G28KT 1/4SM SN FZFG M20/M22 A2992 RMK AO2 PK WND
                 04028/0527 PRESFR P0000 T12001222 $ =
2019-01-20 00:07 METAR KART 200507Z AUTO 05018KT 1/2SM SN FZFG M20/M22 A2995 RMK AO2 P0000
                 T12001222 $ =
2019-01-19 23:56 METAR KART 200456Z AUTO 05016KT 1/4SM SN FZFG M20/M22 A2996 RMK AO2 PRESFR
                 SLP159 P0000 T12001222 411061200 $ =
2019-01-19 23:51 METAR KART 200451Z AUTO 05016KT 1/4SM SN FZFG M20/M22 A2996 RMK AO2 P0000 $ =
2019-01-19 23:44 METAR KART 200444Z AUTO 05019KT 1/2SM SN FZFG M20/M22 A2997 RMK AO2 P0000
                 T12001222 $ =
2019-01-19 22:56 METAR KART 200356Z AUTO 05017KT 1/2SM -SN FZFG VV009 M20/M22 A3001 RMK AO2
                 SLP176 P0000 T12001222 $ =
2019-01-19 22:29 METAR KART 200329Z AUTO 05016KT 1/2SM SN VV009 M19/M22 A3002 RMK AO2 P0000
                 T11941222 $ =
2019-01-19 21:56 METAR KART 200256Z AUTO 05018KT 1/2SM -SN FZFG VV010 M19/M22 A3004 RMK AO2
                 PRESFR SLP188 P0000 60000 T11941217 58024 $ =
2019-01-19 21:16 METAR KART 200216Z AUTO 05018KT 1/2SM -SN FZFG VV009 M19/M22 A3007 RMK AO2 P0000
                 T11941217 =
2019-01-19 20:56 METAR KART 200156Z AUTO 05015KT 1/2SM SN VV011 M19/M22 A3009 RMK AO2 SLP204
                 P0000 T11891217 =
2019-01-19 20:29 METAR KART 200129Z AUTO 05017KT 1/2SM SN VV013 M19/M22 A3010 RMK AO2 P0000
                 T11891217 =
2019-01-19 19:56 METAR KART 200056Z AUTO 04018KT 3/4SM -SN BR VV019 M19/M21 A3012 RMK AO2 SLP212
                 P0000 T11891211 =
2019-01-19 19:51 METAR KART 200051Z AUTO 04016KT 3/4SM -SN BR VV020 M19/M21 A3011 RMK AO2 P0000 =
2019-01-19 19:25 METAR KART 200025Z AUTO 05017KT 1SM -SN BR VV016 M19/M21 A3013 RMK AO2 P0000
                 T11891211 =
2019-01-19 18:56 METAR KART 192356Z AUTO 05015KT 3/4SM -SN VV010 M18/M21 A3015 RMK AO2 SLP225
                 P0000 60000 T11831211 11172 21189 56032 =
2019-01-19 18:33 METAR KART 192333Z AUTO 04018KT 3/4SM -SN VV013 M18/M21 A3017 RMK AO2 P0000
                 T11831211 =
2019-01-19 18:17 METAR KART 192317Z AUTO 05018KT 3/4SM -SN BR VV018 M18/M21 A3018 RMK AO2 P0000
                 T11831206 =
2019-01-19 17:56 METAR KART 192256Z AUTO 04020G24KT 1 1/4SM -SN OVC026 M18/M21 A3019 RMK AO2
                 SLP236 P0000 T11781206 =
2019-01-19 17:28 METAR KART 192228Z AUTO 05018KT 1SM -SN BR VV020 M18/M20 A3019 RMK AO2 P0000
                 T11781200 =
2019-01-19 17:21 METAR KART 192221Z AUTO 05015KT 3/4SM -SN VV017 M17/M20 A3020 RMK AO2 P0000
                 T11721200 =
2019-01-19 17:11 METAR KART 192211Z AUTO 05015KT 3/4SM -SN VV014 M17/M20 A3020 RMK AO2 P0000
                 T11721200 =
2019-01-19 16:56 METAR KART 192156Z AUTO 05017KT 1/4SM +SN VV014 M17/M20 A3021 RMK AO2 SLP243
                 P0000 T11721200 =
2019-01-19 15:56 METAR KART 192056Z AUTO 05013KT 1/4SM -SN FZFG VV012 M18/M20 A3025 RMK AO2
                 SLP257 P0000 60000 T11781200 57008 =
2019-01-19 15:19 METAR KART 192019Z AUTO 04015KT 1/4SM +SN VV010 M18/M21 A3026 RMK AO2 P0000
                 T11781206 =
2019-01-19 14:56 METAR KART 191956Z AUTO 04016KT 1/4SM -SN FZFG VV008 M18/M21 A3026 RMK AO2
                 SLP262 P0000 T11831206 =
2019-01-19 14:35 METAR KART 191935Z AUTO 04014KT 1/4SM SN FZFG VV008 M18/M21 A3026 RMK AO2 P0000
                 T11831206 =
2019-01-19 14:18 METAR KART 191918Z AUTO 05015KT 1/4SM +SN VV012 M18/M21 A3026 RMK AO2 P0000
                 T11831211 =
2019-01-19 14:09 METAR KART 191909Z AUTO 05017KT 1/4SM +SN VV015 M18/M21 A3026 RMK AO2 P0000
                 T11831211 =
2019-01-19 13:56 METAR KART 191856Z AUTO 05013KT 1/2SM SN VV020 M18/M21 A3026 RMK AO2 SLP260
                 P0000 T11831211 =
2019-01-19 12:56 METAR KART 191756Z AUTO 04013KT 1/2SM SN OVC022 M19/M22 A3027 RMK AO2 SLP265
                 P0000 60000 T11891217 11172 21194 58040 =
2019-01-19 12:27 METAR KART 191727Z AUTO 05016KT 3/4SM -SN BKN028 OVC037 M19/M22 A3030 RMK AO2
                 P0000 T11891222 =
2019-01-19 12:05 METAR KART 191705Z AUTO 05018KT 1 1/4SM -SN BKN037 OVC046 M19/M23 A3032 RMK AO2
                 P0000 T11891233 =
2019-01-19 11:56 METAR KART 191656Z AUTO 04016KT 2SM -SN OVC040 M19/M23 A3033 RMK AO2 SNB53
                 SLP283 P0000 T11891228 =
2019-01-19 10:56 METAR KART 191556Z AUTO 04018KT 6SM HZ FEW046 BKN060 OVC075 M19/M23 A3037 RMK
                 AO2 SLP296 T11941233 =
2019-01-19 09:56 METAR KART 191456Z AUTO 04016KT 10SM FEW036 FEW043 OVC085 M19/M24 A3039 RMK AO2
                 SLP303 T11891239 51014 =
2019-01-19 08:56 METAR KART 191356Z AUTO 04017KT 10SM BKN039 BKN046 OVC060 M19/M23 A3039 RMK AO2
                 SLP302 T11891233 =
2019-01-19 07:56 METAR KART 191256Z AUTO 03015KT 10SM OVC040 M18/M24 A3040 RMK AO2 SLP305
                 T11831239 =
2019-01-19 06:56 METAR KART 191156Z AUTO 04013KT 10SM OVC110 M17/M23 A3035 RMK AO2 SLP288 70001
                 T11721228 11111 21172 53006 =
2019-01-19 05:56 METAR KART 191056Z AUTO 04015KT 10SM CLR M17/M22 A3032 RMK AO2 SLP278 T11721217
                 =
2019-01-19 04:56 METAR KART 190956Z AUTO 04017KT 10SM CLR M16/M21 A3032 RMK AO2 SLP278 T11611206
                 =
2019-01-19 03:56 METAR KART 190856Z AUTO 03012KT 10SM BKN044 M15/M19 A3033 RMK AO2 SLP281
                 T11501194 53016 =
2019-01-19 02:56 METAR KART 190756Z AUTO 03014KT 10SM FEW046 M14/M19 A3032 RMK AO2 SLP277
                 T11391189 =

Support USWX by starting your Amazon purchase here.